createdAt,value
2022-10-05T00:01:31.811Z,2.05
2022-10-05T00:04:17.683Z,2.03
2022-10-05T00:06:56.038Z,1.70
2022-10-05T00:09:30.511Z,1.67
2022-10-05T00:12:06.193Z,1.77
2022-10-05T00:14:42.845Z,2.05
2022-10-05T00:17:24.023Z,2.10
2022-10-05T00:19:59.570Z,2.42
2022-10-05T00:22:35.949Z,2.20
2022-10-05T00:25:16.924Z,3.08
2022-10-05T00:27:53.838Z,2.38
2022-10-05T00:30:31.961Z,1.83
2022-10-05T00:33:06.180Z,2.20
2022-10-05T00:35:43.728Z,1.65
2022-10-05T00:38:18.863Z,2.17
2022-10-05T00:41:09.084Z,1.90
2022-10-05T00:44:04.177Z,2.65
2022-10-05T00:46:54.603Z,2.38
2022-10-05T00:49:56.954Z,2.25
2022-10-05T00:52:42.626Z,2.42
2022-10-05T00:55:35.971Z,2.33
2022-10-05T00:58:19.481Z,2.22
2022-10-05T01:01:04.967Z,2.22
2022-10-05T01:03:52.653Z,2.10
2022-10-05T01:06:35.946Z,2.58
2022-10-05T01:09:19.515Z,2.22
2022-10-05T01:11:59.579Z,2.78
2022-10-05T01:14:42.727Z,2.70
2022-10-05T01:17:22.045Z,2.70
2022-10-05T01:20:20.261Z,2.88
2022-10-05T01:23:22.328Z,2.53
2022-10-05T01:26:14.775Z,2.55
2022-10-05T01:28:56.623Z,2.60
2022-10-05T01:31:36.226Z,3.10
2022-10-05T01:34:19.475Z,2.60
2022-10-05T01:37:01.950Z,2.70
2022-10-05T01:39:49.488Z,2.53
2022-10-05T01:42:34.566Z,3.35
2022-10-05T01:45:16.519Z,3.10
2022-10-05T01:47:54.339Z,3.33
2022-10-05T01:50:38.818Z,3.42
2022-10-05T01:53:31.148Z,3.17
2022-10-05T01:56:18.884Z,3.10
2022-10-05T01:59:03.404Z,2.80
2022-10-05T02:01:52.960Z,2.78
2022-10-05T02:07:36.221Z,2.80
2022-10-05T02:10:26.392Z,2.70
2022-10-05T02:13:09.186Z,2.38
2022-10-05T02:15:49.319Z,3.00
2022-10-05T02:18:32.783Z,2.72
2022-10-05T02:21:13.954Z,2.22
2022-10-05T02:23:51.751Z,2.55
2022-10-05T02:26:28.643Z,2.55
2022-10-05T02:29:06.889Z,2.95
2022-10-05T02:31:47.567Z,2.47
2022-10-05T02:34:33.132Z,2.25
2022-10-05T02:37:26.583Z,2.35
2022-10-05T02:40:15.671Z,2.38
2022-10-05T02:43:02.258Z,2.47
2022-10-05T02:45:46.227Z,2.53
2022-10-05T02:48:30.652Z,2.65
2022-10-05T02:51:11.635Z,2.45
2022-10-05T02:54:00.243Z,2.85
2022-10-05T02:56:38.775Z,2.72
2022-10-05T02:59:19.393Z,2.63
2022-10-05T03:01:59.430Z,2.47
2022-10-05T03:04:42.962Z,2.20
2022-10-05T03:07:27.649Z,2.00
2022-10-05T03:10:13.164Z,2.22
2022-10-05T03:13:04.072Z,2.60
2022-10-05T03:15:59.619Z,2.20
2022-10-05T03:18:47.873Z,2.47
2022-10-05T03:21:32.725Z,2.35
2022-10-05T03:24:17.091Z,2.03
2022-10-05T03:26:58.132Z,2.30
2022-10-05T03:29:39.937Z,2.35
2022-10-05T03:32:26.156Z,2.47
2022-10-05T03:35:08.876Z,2.70
2022-10-05T03:37:56.267Z,2.65
2022-10-05T03:40:39.490Z,2.58
2022-10-05T03:43:50.795Z,2.40
2022-10-05T03:46:37.703Z,2.72
2022-10-05T03:49:21.556Z,2.58
2022-10-05T03:52:14.920Z,2.75
2022-10-05T03:54:57.270Z,2.50
2022-10-05T03:57:39.421Z,2.38
2022-10-05T04:00:21.674Z,2.80
2022-10-05T04:03:09.709Z,3.00
2022-10-05T04:05:51.419Z,2.63
2022-10-05T04:08:35.611Z,3.15
2022-10-05T04:11:17.762Z,3.20
2022-10-05T04:13:57.222Z,3.25
2022-10-05T04:16:36.325Z,2.50
2022-10-05T04:19:19.200Z,3.03
2022-10-05T04:22:02.102Z,2.80
2022-10-05T04:24:43.323Z,3.13
2022-10-05T04:27:24.082Z,2.35
2022-10-05T04:30:07.241Z,2.75
2022-10-05T04:32:45.943Z,3.03
2022-10-05T04:35:45.641Z,3.10
2022-10-05T04:38:40.563Z,2.72
2022-10-05T04:41:36.185Z,2.20
2022-10-05T04:44:27.205Z,2.05
2022-10-05T04:47:30.338Z,1.90
2022-10-05T04:50:17.768Z,2.17
2022-10-05T04:53:17.474Z,2.13
2022-10-05T04:56:00.439Z,2.08
2022-10-05T04:58:51.578Z,2.35
2022-10-05T05:01:45.871Z,2.50
2022-10-05T05:04:40.941Z,2.35
2022-10-05T05:07:30.507Z,3.00
2022-10-05T05:10:37.859Z,2.33
2022-10-05T05:13:34.654Z,2.65
2022-10-05T05:16:12.977Z,2.65
2022-10-05T05:19:29.476Z,2.65
2022-10-05T05:22:09.994Z,2.85
2022-10-05T05:24:58.331Z,2.70
2022-10-05T05:27:48.592Z,2.90
2022-10-05T05:30:28.036Z,2.55
2022-10-05T05:33:14.412Z,2.67
2022-10-05T05:36:11.730Z,3.10
2022-10-05T05:38:57.391Z,3.25
2022-10-05T05:41:41.845Z,2.65
2022-10-05T05:44:29.183Z,2.70
2022-10-05T05:47:08.664Z,2.97
2022-10-05T05:50:07.280Z,2.70
2022-10-05T05:52:50.804Z,2.90
2022-10-05T05:55:30.629Z,2.53
2022-10-05T05:58:16.830Z,3.45
2022-10-05T06:00:57.731Z,3.08
2022-10-05T06:03:40.329Z,3.20
2022-10-05T06:06:22.085Z,3.42
2022-10-05T06:09:02.445Z,3.45
2022-10-05T06:11:47.454Z,3.10
2022-10-05T06:14:30.382Z,2.90
2022-10-05T06:17:09.747Z,2.80
2022-10-05T06:19:47.102Z,2.92
2022-10-05T06:22:26.916Z,3.38
2022-10-05T06:25:14.183Z,2.40
2022-10-05T06:28:13.260Z,3.13
2022-10-05T06:31:04.051Z,2.97
2022-10-05T06:33:51.127Z,2.65
2022-10-05T06:36:45.435Z,3.30
2022-10-05T06:39:51.598Z,3.33
2022-10-05T06:42:46.495Z,2.75
2022-10-05T06:45:39.470Z,3.08
2022-10-05T06:48:31.359Z,2.67
2022-10-05T06:51:39.048Z,2.60
2022-10-05T06:54:32.024Z,3.05
2022-10-05T06:57:16.300Z,2.63
2022-10-05T07:00:00.308Z,2.22
2022-10-05T07:02:44.666Z,2.90
2022-10-05T07:05:47.103Z,3.10
2022-10-05T07:08:28.669Z,2.65
2022-10-05T07:11:15.176Z,2.97
2022-10-05T07:14:24.140Z,2.88
2022-10-05T07:17:13.321Z,3.10
2022-10-05T07:19:56.483Z,2.80
2022-10-05T07:23:06.626Z,2.83
2022-10-05T07:25:46.796Z,3.08
2022-10-05T07:28:31.708Z,3.65
2022-10-05T07:31:16.650Z,3.03
2022-10-05T07:34:03.247Z,2.83
2022-10-05T07:37:01.004Z,2.97
2022-10-05T07:39:59.811Z,3.17
2022-10-05T07:42:58.244Z,3.45
2022-10-05T07:45:41.168Z,3.40
2022-10-05T07:48:23.496Z,3.15
2022-10-05T07:51:12.355Z,3.30
2022-10-05T07:53:57.333Z,3.03
2022-10-05T07:56:35.079Z,3.45
2022-10-05T07:59:18.124Z,3.10
2022-10-05T08:01:54.825Z,3.45
2022-10-05T08:04:35.201Z,2.88
2022-10-05T08:07:17.843Z,3.00
2022-10-05T08:09:56.339Z,2.63
2022-10-05T08:12:40.602Z,3.63
2022-10-05T08:15:22.219Z,4.18
2022-10-05T08:18:00.760Z,4.10
2022-10-05T08:20:49.126Z,3.97
2022-10-05T08:23:30.717Z,4.57
2022-10-05T08:26:19.625Z,3.90
2022-10-05T08:29:04.114Z,3.25
2022-10-05T08:31:41.897Z,3.28
2022-10-05T08:34:31.324Z,3.28
2022-10-05T08:37:12.478Z,2.88
2022-10-05T08:39:57.600Z,2.95
2022-10-05T08:43:13.266Z,3.20
2022-10-05T08:46:14.761Z,3.00
2022-10-05T08:49:14.625Z,3.05
2022-10-05T08:52:33.909Z,3.13
2022-10-05T08:55:29.962Z,3.70
2022-10-05T08:58:34.965Z,3.30
2022-10-05T09:01:18.964Z,3.92
2022-10-05T09:04:34.769Z,3.53
2022-10-05T09:07:37.945Z,2.88
2022-10-05T09:10:50.832Z,3.38
2022-10-05T09:14:14.997Z,3.25
2022-10-05T09:17:24.611Z,3.28
2022-10-05T09:20:20.585Z,3.20
2022-10-05T09:23:14.878Z,3.20
2022-10-05T09:26:03.913Z,3.08
2022-10-05T09:28:51.083Z,2.35
2022-10-05T09:31:55.357Z,2.97
2022-10-05T09:34:59.466Z,3.55
2022-10-05T09:38:13.400Z,3.45
2022-10-05T09:41:31.623Z,2.55
2022-10-05T09:44:42.198Z,2.75
2022-10-05T09:47:48.375Z,2.40
2022-10-05T09:50:56.484Z,3.28
2022-10-05T09:54:08.522Z,3.17
2022-10-05T09:57:21.434Z,2.97
2022-10-05T10:00:28.591Z,2.75
2022-10-05T10:03:51.354Z,3.28
2022-10-05T10:06:36.745Z,3.53
2022-10-05T10:09:35.160Z,2.88
2022-10-05T10:12:32.777Z,2.88
2022-10-05T10:15:52.200Z,2.80
2022-10-05T10:19:09.086Z,3.42
2022-10-05T10:22:10.739Z,3.00
2022-10-05T10:25:20.998Z,3.08
2022-10-05T10:28:21.100Z,3.47
2022-10-05T10:31:18.895Z,3.03
2022-10-05T10:34:23.198Z,3.05
2022-10-05T10:37:29.271Z,3.58
2022-10-05T10:40:19.031Z,2.97
2022-10-05T10:43:15.170Z,2.80
2022-10-05T10:46:03.083Z,2.92
2022-10-05T10:48:59.131Z,3.47
2022-10-05T10:52:20.509Z,2.92
2022-10-05T10:55:26.388Z,3.40
2022-10-05T10:58:38.773Z,3.38
2022-10-05T11:01:28.931Z,2.88
2022-10-05T11:04:43.128Z,3.30
2022-10-05T11:07:43.971Z,2.60
2022-10-05T11:11:02.937Z,3.40
2022-10-05T11:14:05.294Z,3.60
2022-10-05T11:17:17.221Z,2.90
2022-10-05T11:20:03.943Z,3.15
2022-10-05T11:22:59.224Z,2.63
2022-10-05T11:25:54.470Z,8.57
2022-10-05T11:28:56.348Z,4.40
2022-10-05T11:32:00.325Z,4.60
2022-10-05T11:34:58.352Z,4.53
2022-10-05T11:38:04.450Z,3.35
2022-10-05T11:41:34.665Z,4.45
2022-10-05T11:44:53.534Z,3.60
2022-10-05T11:47:33.196Z,3.08
2022-10-05T11:50:22.095Z,3.80
2022-10-05T11:53:02.756Z,3.90
2022-10-05T11:55:43.828Z,3.17
2022-10-05T11:58:24.460Z,2.60
2022-10-05T12:01:08.783Z,2.80
2022-10-05T12:04:00.640Z,2.92
2022-10-05T12:06:51.874Z,3.13
2022-10-05T12:09:38.679Z,3.00
2022-10-05T12:12:23.889Z,2.92
2022-10-05T12:15:07.866Z,3.10
2022-10-05T12:17:53.204Z,2.90
2022-10-05T12:20:37.885Z,3.15
2022-10-05T12:23:24.582Z,2.65
2022-10-05T12:26:05.613Z,2.40
2022-10-05T12:28:48.614Z,2.97
2022-10-05T12:31:38.113Z,2.40
2022-10-05T12:34:27.606Z,3.05
2022-10-05T12:37:15.434Z,2.92
2022-10-05T12:39:55.150Z,2.90
2022-10-05T12:42:40.866Z,2.95
2022-10-05T12:45:30.917Z,2.72
2022-10-05T12:48:20.809Z,3.03
2022-10-05T12:51:01.395Z,3.00
2022-10-05T12:53:51.403Z,2.63
2022-10-05T12:56:37.988Z,2.40
2022-10-05T12:59:24.060Z,2.30
2022-10-05T13:02:06.867Z,2.85
2022-10-05T13:04:50.846Z,2.50
2022-10-05T13:07:40.300Z,2.65
2022-10-05T13:10:29.823Z,3.03
2022-10-05T13:13:20.896Z,2.50
2022-10-05T13:16:03.693Z,2.47
2022-10-05T13:18:48.117Z,2.85
2022-10-05T13:21:28.582Z,2.70
2022-10-05T13:24:10.247Z,2.80
2022-10-05T13:26:55.857Z,2.92
2022-10-05T13:29:37.030Z,2.58
2022-10-05T13:32:20.743Z,3.05
2022-10-05T13:35:11.361Z,3.25
2022-10-05T13:37:56.360Z,2.88
2022-10-05T13:40:37.613Z,2.78
2022-10-05T13:43:22.654Z,2.80
2022-10-05T13:46:03.411Z,2.70
2022-10-05T13:49:01.062Z,3.42
2022-10-05T13:51:40.873Z,2.65
2022-10-05T13:54:23.484Z,2.67
2022-10-05T13:57:09.793Z,2.65
2022-10-05T13:59:54.963Z,3.22
2022-10-05T14:02:34.734Z,3.40
2022-10-05T14:05:21.824Z,2.85
2022-10-05T14:08:02.273Z,3.60
2022-10-05T14:10:41.447Z,3.15
2022-10-05T14:13:29.084Z,2.50
2022-10-05T14:16:12.428Z,2.55
2022-10-05T14:18:59.640Z,2.97
2022-10-05T14:21:36.707Z,3.03
2022-10-05T14:24:43.273Z,2.78
2022-10-05T14:27:32.432Z,2.42
2022-10-05T14:30:23.782Z,1.83
2022-10-05T14:33:14.482Z,2.42
2022-10-05T14:35:54.304Z,2.72
2022-10-05T14:38:31.192Z,1.60
2022-10-05T14:41:23.895Z,1.70
2022-10-05T14:44:04.112Z,1.77
2022-10-05T14:46:41.939Z,1.70
2022-10-05T14:49:25.961Z,2.40
2022-10-05T14:52:02.417Z,2.08
2022-10-05T14:54:45.984Z,3.10
2022-10-05T14:57:32.623Z,3.30
2022-10-05T15:00:18.145Z,2.95
2022-10-05T15:03:20.323Z,2.83
2022-10-05T15:06:01.686Z,2.90
2022-10-05T15:08:53.795Z,2.85
2022-10-05T15:11:40.382Z,2.80
2022-10-05T15:14:23.659Z,3.00
2022-10-05T15:17:03.440Z,3.35
2022-10-05T15:19:51.223Z,2.83
2022-10-05T15:22:34.921Z,3.03
2022-10-05T15:25:19.292Z,3.22
2022-10-05T15:28:07.442Z,2.88
2022-10-05T15:30:52.033Z,2.67
2022-10-05T15:33:38.401Z,3.20
2022-10-05T15:36:29.463Z,3.20
2022-10-05T15:39:15.423Z,2.80
2022-10-05T15:42:01.931Z,2.70
2022-10-05T15:44:55.781Z,3.33
2022-10-05T15:47:40.713Z,2.53
2022-10-05T15:50:24.524Z,2.80
2022-10-05T15:53:04.181Z,2.28
2022-10-05T15:55:48.378Z,3.70
2022-10-05T15:58:51.439Z,2.65
2022-10-05T16:01:43.449Z,2.97
2022-10-05T16:04:22.518Z,2.30
2022-10-05T16:07:19.254Z,2.50
2022-10-05T16:10:02.124Z,2.67
2022-10-05T16:12:48.916Z,2.30
2022-10-05T16:15:35.290Z,2.40
2022-10-05T16:18:37.458Z,2.88
2022-10-05T16:21:22.457Z,2.90
2022-10-05T16:24:08.062Z,2.70
2022-10-05T16:27:01.844Z,2.42
2022-10-05T16:29:49.623Z,2.75
2022-10-05T16:32:28.317Z,2.20
2022-10-05T16:35:16.229Z,2.58
2022-10-05T16:38:00.372Z,2.60
2022-10-05T16:40:45.884Z,2.78
2022-10-05T16:43:32.961Z,2.38
2022-10-05T16:46:22.316Z,2.03
2022-10-05T16:49:08.151Z,2.30
2022-10-05T16:51:52.319Z,2.70
2022-10-05T16:54:30.690Z,2.63
2022-10-05T16:57:11.772Z,2.63
2022-10-05T17:00:23.926Z,3.28
2022-10-05T17:03:26.337Z,2.67
2022-10-05T17:06:21.143Z,2.85
2022-10-05T17:09:22.761Z,2.80
2022-10-05T17:12:18.689Z,2.95
2022-10-05T17:15:11.476Z,2.75
2022-10-05T17:18:03.740Z,2.65
2022-10-05T17:20:50.854Z,3.03
2022-10-05T17:23:42.722Z,3.03
2022-10-05T17:26:57.762Z,3.55
2022-10-05T17:29:35.822Z,3.10
2022-10-05T17:32:32.070Z,2.90
2022-10-05T17:35:25.484Z,2.75
2022-10-05T17:38:24.211Z,3.17
2022-10-05T17:41:24.367Z,3.28
2022-10-05T17:44:26.511Z,3.15
2022-10-05T17:47:05.525Z,3.03
2022-10-05T17:50:16.260Z,2.88
2022-10-05T17:53:42.514Z,3.33
2022-10-05T17:56:17.662Z,3.83
2022-10-05T17:59:08.323Z,2.53
2022-10-05T18:01:44.727Z,2.17
2022-10-05T18:04:43.911Z,2.65
2022-10-05T18:07:28.309Z,2.97
2022-10-05T18:10:30.386Z,2.95
2022-10-05T18:13:43.212Z,2.30
2022-10-05T18:16:38.711Z,2.75
2022-10-05T18:19:24.760Z,2.22
2022-10-05T18:22:17.021Z,2.67
2022-10-05T18:25:07.610Z,2.50
2022-10-05T18:28:17.631Z,2.10
2022-10-05T18:31:17.935Z,2.63
2022-10-05T18:34:13.106Z,2.47
2022-10-05T18:37:20.883Z,2.72
2022-10-05T18:40:20.285Z,2.90
2022-10-05T18:43:02.006Z,2.60
2022-10-05T18:45:45.747Z,3.25
2022-10-05T18:48:32.863Z,3.00
2022-10-05T18:51:19.619Z,2.80
2022-10-05T18:54:07.866Z,2.63
2022-10-05T18:56:50.020Z,2.63
2022-10-05T18:59:34.496Z,2.65
2022-10-05T19:02:24.843Z,2.95
2022-10-05T19:05:42.946Z,3.08
2022-10-05T19:08:25.237Z,2.63
2022-10-05T19:11:05.806Z,2.10
2022-10-05T19:14:09.389Z,2.40
2022-10-05T19:16:58.699Z,2.10
2022-10-05T19:20:06.928Z,2.45
2022-10-05T19:23:00.402Z,2.40
2022-10-05T19:25:44.282Z,2.47
2022-10-05T19:28:32.128Z,2.30
2022-10-05T19:31:25.004Z,2.25
2022-10-05T19:34:11.545Z,2.40
2022-10-05T19:36:55.124Z,2.40
2022-10-05T19:39:40.667Z,2.38
2022-10-05T19:42:36.118Z,2.35
2022-10-05T19:45:22.539Z,2.15
2022-10-05T19:48:14.071Z,2.55
2022-10-05T19:51:00.218Z,2.55
2022-10-05T19:53:38.675Z,2.78
2022-10-05T19:56:23.148Z,2.83
2022-10-05T19:59:02.717Z,3.05
2022-10-05T20:01:40.620Z,2.53
2022-10-05T20:04:19.235Z,2.50
2022-10-05T20:06:54.776Z,2.40
2022-10-05T20:09:30.311Z,2.33
2022-10-05T20:12:05.506Z,2.17
2022-10-05T20:15:00.559Z,2.10
2022-10-05T20:17:53.289Z,2.17
2022-10-05T20:20:43.337Z,1.88
2022-10-05T20:23:26.995Z,1.95
2022-10-05T20:26:18.903Z,2.30
2022-10-05T20:28:54.565Z,2.20
2022-10-05T20:31:29.683Z,2.10
2022-10-05T20:34:06.292Z,1.58
2022-10-05T20:36:47.817Z,2.20
2022-10-05T20:39:25.932Z,2.35
2022-10-05T20:42:01.898Z,2.33
2022-10-05T20:44:37.635Z,3.00
2022-10-05T20:47:14.094Z,2.55
2022-10-05T20:49:49.306Z,2.55
2022-10-05T20:52:27.213Z,2.90
2022-10-05T20:55:03.458Z,2.60
2022-10-05T20:57:43.566Z,2.40
2022-10-05T21:00:19.782Z,2.70
2022-10-05T21:02:55.006Z,2.03
2022-10-05T21:05:30.060Z,2.42
2022-10-05T21:08:09.825Z,2.97
2022-10-05T21:10:47.433Z,2.50
2022-10-05T21:13:27.107Z,2.60
2022-10-05T21:16:02.157Z,2.38
2022-10-05T21:18:37.144Z,2.53
2022-10-05T21:21:15.422Z,2.83
2022-10-05T21:23:53.134Z,2.42
2022-10-05T21:26:28.810Z,2.80
2022-10-05T21:29:07.788Z,2.70
2022-10-05T21:31:47.129Z,2.05
2022-10-05T21:34:23.332Z,2.30
2022-10-05T21:36:58.990Z,2.15
2022-10-05T21:39:37.992Z,2.20
2022-10-05T21:42:14.131Z,2.40
2022-10-05T21:44:49.409Z,2.70
2022-10-05T21:47:27.496Z,2.45
2022-10-05T21:50:02.819Z,2.38
2022-10-05T21:52:39.944Z,2.72
2022-10-05T21:55:17.456Z,2.85
2022-10-05T21:57:55.636Z,2.55
2022-10-05T22:00:31.234Z,3.20
2022-10-05T22:03:07.716Z,2.75
2022-10-05T22:05:43.902Z,1.83
2022-10-05T22:08:26.228Z,2.10
2022-10-05T22:11:03.683Z,1.80
2022-10-05T22:13:46.889Z,1.52
2022-10-05T22:16:24.335Z,1.70
2022-10-05T22:19:00.422Z,1.83
2022-10-05T22:21:39.471Z,1.95
2022-10-05T22:24:16.947Z,1.67
2022-10-05T22:26:55.218Z,1.83
2022-10-05T22:29:30.353Z,2.00
2022-10-05T22:32:05.912Z,2.00
2022-10-05T22:34:40.974Z,1.90
2022-10-05T22:37:17.312Z,1.90
2022-10-05T22:39:52.477Z,2.42
2022-10-05T22:42:30.210Z,2.30
2022-10-05T22:45:05.200Z,1.90
2022-10-05T22:47:40.646Z,2.10
2022-10-05T22:50:16.042Z,2.00
2022-10-05T22:52:54.078Z,2.17
2022-10-05T22:55:30.301Z,2.38
2022-10-05T22:58:09.096Z,2.30
2022-10-05T23:00:58.146Z,2.10
2022-10-05T23:03:35.029Z,2.10
2022-10-05T23:06:13.951Z,2.10
2022-10-05T23:08:49.805Z,1.48
2022-10-05T23:11:27.450Z,1.70
2022-10-05T23:14:04.483Z,2.10
2022-10-05T23:16:39.954Z,1.80
2022-10-05T23:19:16.302Z,1.98
2022-10-05T23:21:52.400Z,2.28
2022-10-05T23:24:27.914Z,1.85
2022-10-05T23:27:03.426Z,1.90
2022-10-05T23:29:40.679Z,2.30
2022-10-05T23:32:19.392Z,1.65
2022-10-05T23:34:54.905Z,2.50
2022-10-05T23:37:30.781Z,2.33
2022-10-05T23:40:06.280Z,2.55
2022-10-05T23:42:41.426Z,2.30
2022-10-05T23:45:19.825Z,2.33
2022-10-05T23:47:55.271Z,2.67
2022-10-05T23:50:30.444Z,2.70
2022-10-05T23:53:05.615Z,2.13
2022-10-05T23:55:40.891Z,2.20
2022-10-05T23:58:16.631Z,1.92
